Time;durP1;ratioP1;P1;durP2;ratioP2;P2;SDS_P1;SDS_P2;PMS_P1;PMS_P2;Temp;Humidity;BMP_temperature;BMP_pressure;BME280_temperature;BME280_humidity;BME280_pressure;Samples;Min_cycle;Max_cycle;Signal;HPM_P1;HPM_P2
2022/12/20 00:02:01;;;;;;;13.48;4.63;;;;;;;;;;4954081;28;20030;-65
2022/12/20 00:04:27;;;;;;;10.85;4.82;;;;;;;;;;4951414;28;20532;-64
2022/12/20 00:06:53;;;;;;;13.02;4.50;;;;;;;;;;4972539;28;20231;-65
2022/12/20 00:09:19;;;;;;;10.70;4.20;;;;;;;;;;4956210;28;20385;-65
2022/12/20 00:11:45;;;;;;;11.00;3.78;;;;;;;;;;4950642;28;20598;-65
2022/12/20 00:14:12;;;;;;;11.85;3.60;;;;;;;;;;4954035;28;20093;-64
2022/12/20 00:16:38;;;;;;;13.23;3.92;;;;;;;;;;4951157;28;20112;-65
2022/12/20 00:19:05;;;;;;;9.18;3.30;;;;;;;;;;4952304;28;20031;-66
2022/12/20 00:21:32;;;;;;;10.07;3.83;;;;;;;;;;4946365;28;20034;-66
2022/12/20 00:23:59;;;;;;;12.05;4.00;;;;;;;;;;4950679;28;20519;-65
2022/12/20 00:26:25;;;;;;;;;;;;;;;;;;4953473;28;20030;-66
2022/12/20 00:28:51;;;;;;;12.18;4.22;;;;;;;;;;4954333;28;20458;-65
2022/12/20 00:31:18;;;;;;;12.77;3.85;;;;;;;;;;4954234;28;20092;-65
2022/12/20 00:33:46;;;;;;;11.18;4.65;;;;;;;;;;4954253;28;20034;-64
2022/12/20 00:36:12;;;;;;;10.85;4.20;;;;;;;;;;4956401;28;20642;-65
2022/12/20 00:38:38;;;;;;;12.10;5.15;;;;;;;;;;4954950;28;20034;-64
2022/12/20 00:41:06;;;;;;;13.23;4.75;;;;;;;;;;4953807;28;20053;-67
2022/12/20 00:43:33;;;;;;;11.32;5.07;;;;;;;;;;4952095;28;20030;-64
2022/12/20 00:45:59;;;;;;;12.25;4.75;;;;;;;;;;4956303;28;20485;-66
2022/12/20 00:48:26;;;;;;;15.30;5.20;;;;;;;;;;4951172;28;20035;-66
2022/12/20 00:50:52;;;;;;;13.65;5.28;;;;;;;;;;4953409;28;20117;-64
2022/12/20 00:53:18;;;;;;;14.48;5.53;;;;;;;;;;4956770;28;20041;-64
2022/12/20 00:55:46;;;;;;;14.77;5.60;;;;;;;;;;4956791;28;22325;-67
2022/12/20 00:58:12;;;;;;;14.32;5.25;;;;;;;;;;4956649;28;20307;-66
2022/12/20 01:00:39;;;;;;;14.52;5.00;;;;;;;;;;4951011;28;20466;-66
2022/12/20 01:03:05;;;;;;;12.73;5.05;;;;;;;;;;4954405;28;20321;-66
2022/12/20 01:05:32;;;;;;;12.43;5.10;;;;;;;;;;4949746;28;20049;-65
2022/12/20 01:07:58;;;;;;;;;;;;;;;;;;4955276;28;20034;-65
2022/12/20 01:10:24;;;;;;;11.50;4.45;;;;;;;;;;4954937;28;19914;-67
2022/12/20 01:12:50;;;;;;;12.82;4.90;;;;;;;;;;4954827;28;20042;-67
2022/12/20 01:15:16;;;;;;;14.05;5.18;;;;;;;;;;4954269;28;20084;-67
2022/12/20 01:17:43;;;;;;;13.02;5.43;;;;;;;;;;4947983;28;20122;-64
2022/12/20 01:20:09;;;;;;;13.15;5.20;;;;;;;;;;4963186;28;20036;-64
2022/12/20 01:22:35;;;;;;;;;;;;;;;;;;4955874;28;20392;-66
2022/12/20 01:25:02;;;;;;;10.48;3.67;;;;;;;;;;4962516;28;19924;-66
2022/12/20 01:27:28;;;;;;;12.23;4.25;;;;;;;;;;4956425;28;20038;-66
2022/12/20 01:29:54;;;;;;;14.32;4.28;;;;;;;;;;4962510;28;20432;-67
2022/12/20 01:32:20;;;;;;;12.13;4.85;;;;;;;;;;4958087;28;21008;-66
2022/12/20 01:34:47;;;;;;;11.23;3.65;;;;;;;;;;4954875;28;20057;-66
2022/12/20 01:37:13;;;;;;;10.48;4.50;;;;;;;;;;4962261;28;20437;-65
2022/12/20 01:39:39;;;;;;;12.02;4.85;;;;;;;;;;4957287;28;20038;-65
2022/12/20 01:42:05;;;;;;;11.70;4.20;;;;;;;;;;4960287;28;20481;-64
2022/12/20 01:44:31;;;;;;;;;;;;;;;;;;4956261;28;20045;-65
2022/12/20 01:46:58;;;;;;;15.50;4.00;;;;;;;;;;4960034;28;20402;-67
2022/12/20 01:49:33;;;;;;;13.00;4.03;;;;;;;;;;4958895;28;20508;-64
2022/12/20 01:51:59;;;;;;;11.60;3.83;;;;;;;;;;4955749;28;20445;-65
2022/12/20 01:54:27;;;;;;;10.57;3.90;;;;;;;;;;4956207;28;20030;-64
2022/12/20 01:56:56;;;;;;;15.30;4.28;;;;;;;;;;4960402;28;20034;-65
2022/12/20 01:59:23;;;;;;;12.23;4.43;;;;;;;;;;4960242;28;20047;-65
2022/12/20 02:01:49;;;;;;;13.70;4.55;;;;;;;;;;4954374;28;20858;-64
2022/12/20 02:04:15;;;;;;;12.23;4.43;;;;;;;;;;4960383;28;20444;-65
2022/12/20 02:06:41;;;;;;;9.68;3.90;;;;;;;;;;4951775;28;20393;-65
2022/12/20 02:09:08;;;;;;;12.80;4.03;;;;;;;;;;4959470;28;20460;-65
2022/12/20 02:11:34;;;;;;;;;;;;;;;;;;4971043;28;20570;-65
2022/12/20 02:14:00;;;;;;;14.30;4.53;;;;;;;;;;4959257;28;20004;-65
2022/12/20 02:16:28;;;;;;;11.40;3.80;;;;;;;;;;4956205;28;20039;-65
2022/12/20 02:18:59;;;;;;;10.98;4.15;;;;;;;;;;4958037;28;20165;-65
2022/12/20 02:21:39;;;;;;;10.93;3.95;;;;;;;;;;4960236;28;20037;-65
2022/12/20 02:24:31;;;;;;;11.45;4.50;;;;;;;;;;4957074;28;20027;-65
2022/12/20 02:27:26;;;;;;;13.30;4.25;;;;;;;;;;4902232;28;20046;-65
2022/12/20 02:29:59;;;;;;;11.10;4.40;;;;;;;;;;4878935;29;20063;-65
2022/12/20 02:32:28;;;;;;;12.50;4.57;;;;;;;;;;4861247;29;20040;-65
2022/12/20 02:34:54;;;;;;;11.45;4.43;;;;;;;;;;4862411;29;20255;-65
2022/12/20 02:37:21;;;;;;;11.60;4.40;;;;;;;;;;4879668;29;20052;-65
2022/12/20 02:40:07;;;;;;;11.25;4.30;;;;;;;;;;4876137;29;20070;-65
2022/12/20 02:42:33;;;;;;;11.40;4.00;;;;;;;;;;4875153;29;20067;-65
2022/12/20 02:45:14;;;;;;;;;;;;;;;;;;4880427;29;20582;-64
2022/12/20 02:47:46;;;;;;;10.07;4.07;;;;;;;;;;4859750;29;19914;-65
2022/12/20 02:50:13;;;;;;;12.73;4.15;;;;;;;;;;4860485;29;20094;-65
2022/12/20 02:52:38;;;;;;;;;;;;;;;;;;4875907;29;20309;-65
2022/12/20 02:55:05;;;;;;;10.38;4.05;;;;;;;;;;4878493;29;20340;-65
2022/12/20 02:57:44;;;;;;;11.40;4.50;;;;;;;;;;4879115;29;20140;-64
2022/12/20 03:00:18;;;;;;;11.32;4.90;;;;;;;;;;4876378;29;20151;-65
2022/12/20 03:05:31;;;;;;;12.85;5.40;;;;;;;;;;4898328;28;20128;-65
2022/12/20 03:07:58;;;;;;;15.48;5.45;;;;;;;;;;4958555;28;20030;-65
2022/12/20 03:10:24;;;;;;;13.93;6.38;;;;;;;;;;4956226;28;20732;-65
2022/12/20 03:12:51;;;;;;;12.60;5.00;;;;;;;;;;4955890;28;20039;-65
2022/12/20 03:15:17;;;;;;;;;;;;;;;;;;4958967;28;20034;-65
2022/12/20 03:17:43;;;;;;;15.23;5.38;;;;;;;;;;4953367;28;20265;-64
2022/12/20 03:20:10;;;;;;;12.25;5.80;;;;;;;;;;4957252;28;20041;-64
2022/12/20 03:22:37;;;;;;;15.63;5.75;;;;;;;;;;4953894;28;20030;-64
2022/12/20 03:25:03;;;;;;;16.58;6.13;;;;;;;;;;4956803;28;20102;-64
2022/12/20 03:27:29;;;;;;;13.82;5.85;;;;;;;;;;4955288;28;20030;-65
2022/12/20 03:29:55;;;;;;;16.45;6.03;;;;;;;;;;4952727;28;20405;-64
2022/12/20 03:32:22;;;;;;;15.32;5.45;;;;;;;;;;4957689;28;20329;-64
2022/12/20 03:34:48;;;;;;;11.63;5.20;;;;;;;;;;4951313;28;20391;-64
2022/12/20 03:37:15;;;;;;;12.35;4.78;;;;;;;;;;4956663;28;20038;-64
2022/12/20 03:39:41;;;;;;;11.38;4.50;;;;;;;;;;4952938;28;20156;-64
2022/12/20 03:42:07;;;;;;;11.40;4.63;;;;;;;;;;4958054;28;20026;-64
2022/12/20 03:44:33;;;;;;;13.98;4.32;;;;;;;;;;4951152;28;20835;-64
2022/12/20 03:47:00;;;;;;;13.32;4.60;;;;;;;;;;4957603;28;20049;-64
2022/12/20 03:49:26;;;;;;;11.30;4.10;;;;;;;;;;4953290;28;20038;-64
2022/12/20 03:51:52;;;;;;;12.57;4.53;;;;;;;;;;4954948;28;20037;-64
2022/12/20 03:54:18;;;;;;;12.13;4.70;;;;;;;;;;4973031;28;20149;-64
2022/12/20 03:56:44;;;;;;;11.32;4.25;;;;;;;;;;4965641;28;20563;-65
2022/12/20 03:59:10;;;;;;;10.88;4.28;;;;;;;;;;4956407;28;20797;-64
2022/12/20 04:01:37;;;;;;;11.27;4.47;;;;;;;;;;4952253;28;20026;-65
2022/12/20 04:04:03;;;;;;;;;;;;;;;;;;4954704;28;20485;-65
2022/12/20 04:06:29;;;;;;;13.40;4.47;;;;;;;;;;4956632;28;19926;-64
2022/12/20 04:08:55;;;;;;;11.40;4.35;;;;;;;;;;4956932;28;20038;-64
2022/12/20 04:11:21;;;;;;;13.18;4.82;;;;;;;;;;4970338;28;20540;-64
2022/12/20 04:13:49;;;;;;;13.68;4.70;;;;;;;;;;4953724;28;20389;-67
2022/12/20 04:16:17;;;;;;;12.35;4.70;;;;;;;;;;4955990;28;20104;-64
2022/12/20 04:18:43;;;;;;;10.63;4.53;;;;;;;;;;4950715;28;20039;-65
2022/12/20 04:21:10;;;;;;;11.55;4.25;;;;;;;;;;4958349;28;20113;-65
2022/12/20 04:23:37;;;;;;;10.52;4.45;;;;;;;;;;4950222;28;20040;-65
2022/12/20 04:26:04;;;;;;;12.32;4.57;;;;;;;;;;4967566;28;20393;-64
2022/12/20 04:28:31;;;;;;;11.30;4.35;;;;;;;;;;4934970;28;20692;-65
2022/12/20 04:30:57;;;;;;;;;;;;;;;;;;4961479;28;20606;-65
2022/12/20 04:33:23;;;;;;;10.38;4.22;;;;;;;;;;4958189;28;19913;-67
2022/12/20 04:35:50;;;;;;;12.35;4.05;;;;;;;;;;4956259;28;20096;-64
2022/12/20 04:38:17;;;;;;;12.25;4.63;;;;;;;;;;4960811;28;20818;-64
2022/12/20 04:40:43;;;;;;;;;;;;;;;;;;4957255;28;20037;-64
2022/12/20 04:43:09;;;;;;;9.77;3.72;;;;;;;;;;4959533;28;19921;-64
2022/12/20 04:45:35;;;;;;;10.68;4.13;;;;;;;;;;4971054;28;20037;-64
2022/12/20 04:48:01;;;;;;;10.43;3.78;;;;;;;;;;4956244;28;20117;-66
2022/12/20 04:50:27;;;;;;;;;;;;;;;;;;4956412;28;20029;-66
2022/12/20 04:55:39;;;;;;;11.25;4.60;;;;;;;;;;4956504;28;20173;-64
2022/12/20 04:58:06;;;;;;;10.07;4.25;;;;;;;;;;4958209;28;20038;-67
2022/12/20 05:00:32;;;;;;;15.52;4.70;;;;;;;;;;4953558;28;20034;-65
2022/12/20 05:02:59;;;;;;;12.63;4.05;;;;;;;;;;4960145;28;20054;-64
2022/12/20 05:05:25;;;;;;;;;;;;;;;;;;4960970;28;20381;-64
2022/12/20 05:07:51;;;;;;;11.13;4.10;;;;;;;;;;4955287;28;19924;-63
2022/12/20 05:10:18;;;;;;;11.35;3.58;;;;;;;;;;4972440;28;20030;-64
2022/12/20 05:12:44;;;;;;;;;;;;;;;;;;4957083;28;20105;-64
2022/12/20 05:15:11;;;;;;;10.57;3.25;;;;;;;;;;4960378;28;19930;-64
2022/12/20 05:17:37;;;;;;;9.90;3.40;;;;;;;;;;4955025;28;20030;-65
2022/12/20 05:20:04;;;;;;;10.82;2.83;;;;;;;;;;4959113;28;20027;-64
2022/12/20 05:28:00;;;;;;;10.55;3.50;;;;;;;;;;4957376;28;20124;-64
2022/12/20 05:30:26;;;;;;;17.70;3.90;;;;;;;;;;4959841;28;20112;-64
2022/12/20 05:32:52;;;;;;;10.95;4.00;;;;;;;;;;4956106;28;20038;-64
2022/12/20 05:35:18;;;;;;;11.45;4.22;;;;;;;;;;4970901;28;20682;-64
2022/12/20 05:37:45;;;;;;;21.00;4.57;;;;;;;;;;4954798;28;20121;-64
2022/12/20 05:40:11;;;;;;;24.48;4.88;;;;;;;;;;4956248;28;20056;-64
2022/12/20 05:42:37;;;;;;;;;;;;;;;;;;4971388;28;20030;-64
2022/12/20 05:45:04;;;;;;;15.43;3.83;;;;;;;;;;4958828;28;19918;-64
2022/12/20 05:47:32;;;;;;;16.17;5.05;;;;;;;;;;4955597;28;20038;-64
2022/12/20 05:50:02;;;;;;;13.07;4.60;;;;;;;;;;4954403;28;20034;-64
2022/12/20 05:52:29;;;;;;;15.52;4.50;;;;;;;;;;4955395;28;20731;-64
2022/12/20 05:54:55;;;;;;;11.90;4.35;;;;;;;;;;4960625;28;20141;-65
2022/12/20 05:57:21;;;;;;;11.25;4.20;;;;;;;;;;4960123;28;20026;-64
2022/12/20 05:59:47;;;;;;;;;;;;;;;;;;4953688;28;20034;-64
2022/12/20 06:02:14;;;;;;;18.27;5.35;;;;;;;;;;4953882;28;20216;-64
2022/12/20 06:04:40;;;;;;;10.93;4.18;;;;;;;;;;4958428;28;20042;-64
2022/12/20 06:07:06;;;;;;;11.15;4.25;;;;;;;;;;4957198;28;20129;-64
2022/12/20 06:09:32;;;;;;;19.55;5.97;;;;;;;;;;4954706;28;20035;-66
2022/12/20 06:11:58;;;;;;;15.30;5.50;;;;;;;;;;4957495;28;20795;-64
2022/12/20 06:14:25;;;;;;;11.77;4.60;;;;;;;;;;4956117;28;20046;-65
2022/12/20 06:16:52;;;;;;;13.50;4.53;;;;;;;;;;4958304;28;20575;-65
2022/12/20 06:19:18;;;;;;;16.98;6.85;;;;;;;;;;4958288;28;20045;-64
2022/12/20 06:21:44;;;;;;;14.98;7.15;;;;;;;;;;4957041;28;20812;-64
2022/12/20 06:24:10;;;;;;;14.15;5.20;;;;;;;;;;4959384;28;20057;-64
2022/12/20 06:26:36;;;;;;;13.43;4.63;;;;;;;;;;4970489;28;20102;-66
2022/12/20 06:29:08;;;;;;;14.00;4.57;;;;;;;;;;4955177;28;20042;-64
2022/12/20 06:31:34;;;;;;;11.40;4.25;;;;;;;;;;4950020;28;20089;-64
2022/12/20 06:34:00;;;;;;;;;;;;;;;;;;4956172;28;20026;-65
2022/12/20 06:36:26;;;;;;;10.82;4.50;;;;;;;;;;4955743;28;20030;-64
2022/12/20 06:38:53;;;;;;;12.95;4.55;;;;;;;;;;4956869;28;20034;-64
2022/12/20 06:41:19;;;;;;;;;;;;;;;;;;4956483;28;20444;-67
2022/12/20 06:43:45;;;;;;;12.30;4.80;;;;;;;;;;4954341;28;19921;-64
2022/12/20 06:46:11;;;;;;;11.43;3.53;;;;;;;;;;4954656;28;20971;-64
2022/12/20 06:48:37;;;;;;;9.82;3.75;;;;;;;;;;4954522;28;20186;-66
2022/12/20 06:51:03;;;;;;;13.65;4.35;;;;;;;;;;4956751;28;20562;-64
2022/12/20 06:53:29;;;;;;;11.07;4.03;;;;;;;;;;4953777;28;20034;-65
2022/12/20 06:55:56;;;;;;;11.30;4.32;;;;;;;;;;4958038;28;20070;-64
2022/12/20 06:58:22;;;;;;;13.18;5.25;;;;;;;;;;4956910;28;20038;-64
2022/12/20 07:00:48;;;;;;;11.98;5.05;;;;;;;;;;4955120;28;20481;-64
2022/12/20 07:03:14;;;;;;;10.07;4.07;;;;;;;;;;4972327;28;20535;-64
2022/12/20 07:05:41;;;;;;;11.80;3.83;;;;;;;;;;4966330;28;20078;-64
2022/12/20 07:08:08;;;;;;;9.80;3.50;;;;;;;;;;4957325;28;20026;-65
2022/12/20 07:10:35;;;;;;;10.98;3.60;;;;;;;;;;4955220;28;20027;-64
2022/12/20 07:13:00;;;;;;;;;;;;;;;;;;4955904;28;20440;-67
2022/12/20 07:15:27;;;;;;;10.80;3.47;;;;;;;;;;4952993;28;20483;-64
2022/12/20 07:17:53;;;;;;;12.00;3.70;;;;;;;;;;4957609;28;20623;-63
2022/12/20 07:20:19;;;;;;;9.00;3.30;;;;;;;;;;4952689;28;20271;-65
2022/12/20 07:22:48;;;;;;;9.00;3.63;;;;;;;;;;4953745;28;21845;-64
2022/12/20 07:25:14;;;;;;;10.25;3.70;;;;;;;;;;4955545;28;20124;-64
2022/12/20 07:27:41;;;;;;;10.18;2.97;;;;;;;;;;4953036;28;20412;-64
2022/12/20 07:30:07;;;;;;;9.93;3.00;;;;;;;;;;4954728;28;20065;-65
2022/12/20 07:32:33;;;;;;;;;;;;;;;;;;4952743;28;20349;-64
2022/12/20 07:35:00;;;;;;;9.00;3.10;;;;;;;;;;4955690;28;19943;-64
2022/12/20 07:37:28;;;;;;;11.32;3.15;;;;;;;;;;4950746;28;20069;-65
2022/12/20 07:39:54;;;;;;;11.95;3.08;;;;;;;;;;4953439;28;20046;-64
2022/12/20 07:42:20;;;;;;;10.57;2.88;;;;;;;;;;4952211;28;20034;-64
2022/12/20 07:44:46;;;;;;;8.93;2.70;;;;;;;;;;4954262;28;20038;-64
2022/12/20 07:47:12;;;;;;;;;;;;;;;;;;4955706;28;20481;-65
2022/12/20 07:49:38;;;;;;;13.15;3.30;;;;;;;;;;4952218;28;20483;-64
2022/12/20 07:52:06;;;;;;;12.82;4.82;;;;;;;;;;4954809;28;20026;-64
2022/12/20 07:54:34;;;;;;;15.48;7.85;;;;;;;;;;4953140;28;20035;-64
2022/12/20 07:57:05;;;;;;;13.07;5.43;;;;;;;;;;4954004;28;20061;-65
2022/12/20 07:59:36;;;;;;;9.88;3.80;;;;;;;;;;4950928;28;20066;-64
2022/12/20 08:02:02;;;;;;;9.77;3.10;;;;;;;;;;4955048;28;20041;-64
2022/12/20 08:04:29;;;;;;;;;;;;;;;;;;4952134;28;20797;-66
2022/12/20 08:06:57;;;;;;;9.93;2.40;;;;;;;;;;4956481;28;20450;-64
2022/12/20 08:09:25;;;;;;;10.55;2.38;;;;;;;;;;4955946;28;20046;-64
2022/12/20 08:11:52;;;;;;;12.13;2.90;;;;;;;;;;4957399;28;20061;-66
2022/12/20 08:14:18;;;;;;;14.18;3.42;;;;;;;;;;4958901;28;20039;-64
2022/12/20 08:16:45;;;;;;;11.88;3.60;;;;;;;;;;4951086;28;20089;-64
2022/12/20 08:19:11;;;;;;;12.85;4.57;;;;;;;;;;4953188;28;20115;-64
2022/12/20 08:21:38;;;;;;;12.23;4.95;;;;;;;;;;4953525;28;20177;-64
2022/12/20 08:24:03;;;;;;;;;;;;;;;;;;4953358;28;20038;-64
2022/12/20 08:26:30;;;;;;;14.35;5.05;;;;;;;;;;4951495;28;19956;-64
2022/12/20 08:28:56;;;;;;;;;;;;;;;;;;4959009;28;20027;-66
2022/12/20 08:31:22;;;;;;;15.75;6.10;;;;;;;;;;4956215;28;20340;-65
2022/12/20 08:33:48;;;;;;;;;;;;;;;;;;4968568;28;20132;-65
2022/12/20 08:36:14;;;;;;;18.42;6.15;;;;;;;;;;4954975;28;19918;-62
2022/12/20 08:38:40;;;;;;;;;;;;;;;;;;4950966;28;20037;-66
2022/12/20 08:41:09;;;;;;;20.90;9.57;;;;;;;;;;4955617;28;19913;-64
2022/12/20 08:43:36;;;;;;;23.08;7.80;;;;;;;;;;4951314;28;20118;-66
2022/12/20 08:46:02;;;;;;;15.38;6.32;;;;;;;;;;4969489;28;20019;-66
2022/12/20 08:48:29;;;;;;;18.98;6.90;;;;;;;;;;4952912;28;20044;-66
2022/12/20 08:50:56;;;;;;;17.23;6.65;;;;;;;;;;4951180;28;20559;-65
2022/12/20 08:53:23;;;;;;;17.80;6.50;;;;;;;;;;4955719;28;20618;-66
2022/12/20 08:55:49;;;;;;;17.75;6.47;;;;;;;;;;4949491;28;20433;-65
2022/12/20 08:58:15;;;;;;;16.90;6.85;;;;;;;;;;4954817;28;20507;-65
2022/12/20 09:00:41;;;;;;;;;;;;;;;;;;4951353;28;20430;-65
2022/12/20 09:03:08;;;;;;;17.65;6.50;;;;;;;;;;4971004;28;19984;-65
2022/12/20 09:05:35;;;;;;;14.50;5.90;;;;;;;;;;4898558;28;1574503;-65
2022/12/20 09:08:01;;;;;;;18.15;6.03;;;;;;;;;;4956094;28;20337;-65
2022/12/20 09:10:27;;;;;;;13.85;5.63;;;;;;;;;;4951402;28;20089;-65
2022/12/20 09:12:53;;;;;;;14.40;5.13;;;;;;;;;;4957451;28;20453;-66
2022/12/20 09:15:19;;;;;;;;;;;;;;;;;;4959282;28;20038;-65
2022/12/20 09:17:46;;;;;;;12.77;4.93;;;;;;;;;;4966053;28;21961;-65
2022/12/20 09:20:12;;;;;;;12.45;4.60;;;;;;;;;;4956475;28;20035;-65
2022/12/20 09:22:38;;;;;;;12.23;4.95;;;;;;;;;;4958207;28;20030;-67
2022/12/20 09:25:05;;;;;;;17.77;6.07;;;;;;;;;;4961253;28;20057;-64
2022/12/20 09:27:32;;;;;;;14.93;5.10;;;;;;;;;;4956481;28;20076;-65
2022/12/20 09:29:58;;;;;;;14.90;5.40;;;;;;;;;;4959335;28;20034;-64
2022/12/20 09:32:24;;;;;;;16.20;6.18;;;;;;;;;;4960475;28;20038;-65
2022/12/20 09:34:50;;;;;;;12.55;4.60;;;;;;;;;;4953868;28;20115;-64
2022/12/20 09:37:16;;;;;;;12.73;4.78;;;;;;;;;;4960702;28;20488;-65
2022/12/20 09:39:42;;;;;;;18.25;4.65;;;;;;;;;;4957249;28;20045;-65
2022/12/20 09:42:09;;;;;;;12.98;4.18;;;;;;;;;;4957976;28;20468;-64
2022/12/20 09:44:36;;;;;;;14.60;4.10;;;;;;;;;;4953538;28;20068;-67
2022/12/20 09:47:09;;;;;;;13.40;3.80;;;;;;;;;;4958648;28;20065;-66
2022/12/20 09:49:37;;;;;;;16.80;4.70;;;;;;;;;;4955053;28;20263;-66
2022/12/20 09:52:06;;;;;;;15.57;4.95;;;;;;;;;;4957933;28;20034;-66
2022/12/20 09:54:41;;;;;;;18.70;6.07;;;;;;;;;;4956434;28;20051;-66
2022/12/20 09:57:14;;;;;;;20.92;5.70;;;;;;;;;;4973580;28;20053;-66
2022/12/20 09:59:42;;;;;;;15.50;5.38;;;;;;;;;;4967071;28;20085;-64
2022/12/20 10:02:12;;;;;;;11.95;4.80;;;;;;;;;;4953174;28;20142;-64
2022/12/20 10:04:38;;;;;;;15.55;5.25;;;;;;;;;;4955004;28;20547;-64
2022/12/20 10:07:23;;;;;;;13.52;4.05;;;;;;;;;;4973273;28;20315;-65
2022/12/20 10:09:55;;;;;;;13.85;3.97;;;;;;;;;;4957578;28;20382;-65
2022/12/20 10:12:40;;;;;;;14.55;4.43;;;;;;;;;;4959660;28;20068;-65
2022/12/20 10:15:15;;;;;;;13.02;4.85;;;;;;;;;;4961146;28;20432;-65
2022/12/20 10:17:55;;;;;;;12.63;5.25;;;;;;;;;;4956769;28;20034;-67
2022/12/20 10:20:21;;;;;;;15.57;5.32;;;;;;;;;;4956214;28;20026;-66
2022/12/20 10:22:57;;;;;;;15.45;7.38;;;;;;;;;;4955123;28;20036;-66
2022/12/20 10:25:24;;;;;;;16.63;9.15;;;;;;;;;;4956760;28;20041;-66
2022/12/20 10:27:52;;;;;;;17.83;7.30;;;;;;;;;;4954475;28;20037;-65
2022/12/20 10:30:20;;;;;;;15.85;6.68;;;;;;;;;;4959008;28;20027;-65
2022/12/20 10:32:47;;;;;;;11.98;4.25;;;;;;;;;;4956118;28;20108;-65
2022/12/20 10:35:13;;;;;;;10.85;3.80;;;;;;;;;;4956571;28;20309;-66
2022/12/20 10:37:55;;;;;;;12.05;3.25;;;;;;;;;;4953752;28;20801;-65
2022/12/20 10:40:29;;;;;;;15.38;4.25;;;;;;;;;;4958738;28;20145;-67
2022/12/20 10:42:55;;;;;;;13.45;4.90;;;;;;;;;;4955693;28;20025;-66
2022/12/20 10:45:22;;;;;;;13.43;6.10;;;;;;;;;;4960261;28;20038;-65
2022/12/20 10:47:50;;;;;;;15.85;5.05;;;;;;;;;;4953554;28;20548;-65
2022/12/20 10:50:16;;;;;;;14.27;4.35;;;;;;;;;;4957047;28;20714;-65
2022/12/20 10:52:43;;;;;;;15.10;5.75;;;;;;;;;;4954048;28;20552;-65
2022/12/20 10:55:28;;;;;;;13.18;5.05;;;;;;;;;;4959192;28;20183;-65
2022/12/20 10:57:54;;;;;;;14.85;5.47;;;;;;;;;;4955163;28;20065;-65
2022/12/20 11:00:28;;;;;;;15.90;6.63;;;;;;;;;;4956375;28;20034;-66
2022/12/20 11:03:13;;;;;;;18.58;5.80;;;;;;;;;;4956757;28;20414;-65
2022/12/20 11:05:39;;;;;;;12.63;4.65;;;;;;;;;;4953110;28;20842;-64
2022/12/20 11:08:16;;;;;;;14.00;4.68;;;;;;;;;;4958488;28;20130;-65
2022/12/20 11:10:42;;;;;;;16.13;4.40;;;;;;;;;;4955593;28;20413;-65
2022/12/20 11:13:19;;;;;;;14.40;4.78;;;;;;;;;;4956616;28;20033;-65
2022/12/20 11:15:49;;;;;;;13.15;5.80;;;;;;;;;;4954341;28;20038;-65
2022/12/20 11:18:21;;;;;;;17.63;8.10;;;;;;;;;;4956557;28;20030;-65
2022/12/20 11:21:03;;;;;;;18.98;9.10;;;;;;;;;;4956022;28;20053;-66
2022/12/20 11:23:51;;;;;;;17.38;6.60;;;;;;;;;;4951670;28;20034;-67
2022/12/20 11:26:35;;;;;;;19.00;6.05;;;;;;;;;;4954760;28;20037;-67
2022/12/20 11:29:07;;;;;;;13.25;5.68;;;;;;;;;;4958659;28;20105;-66
2022/12/20 11:31:47;;;;;;;12.57;4.57;;;;;;;;;;4954229;28;20188;-65
2022/12/20 11:34:14;;;;;;;13.27;5.82;;;;;;;;;;4966083;28;20037;-64
2022/12/20 11:36:48;;;;;;;15.15;5.40;;;;;;;;;;4951765;28;20122;-65
2022/12/20 11:39:14;;;;;;;15.18;4.20;;;;;;;;;;4955826;28;20968;-65
2022/12/20 11:41:43;;;;;;;14.93;4.13;;;;;;;;;;4950420;28;20050;-68
2022/12/20 11:44:12;;;;;;;13.98;3.58;;;;;;;;;;4955466;28;20026;-65
2022/12/20 11:46:45;;;;;;;13.60;3.78;;;;;;;;;;4954974;28;21279;-66
2022/12/20 11:49:14;;;;;;;12.13;3.67;;;;;;;;;;4955771;28;20743;-67
2022/12/20 11:51:40;;;;;;;11.90;3.38;;;;;;;;;;4951817;28;20445;-67
2022/12/20 11:54:09;;;;;;;12.60;3.40;;;;;;;;;;4950194;28;20026;-66
2022/12/20 11:56:42;;;;;;;13.57;3.28;;;;;;;;;;4950922;28;20910;-67
2022/12/20 11:59:12;;;;;;;12.88;3.35;;;;;;;;;;4952493;28;20027;-67
2022/12/20 12:02:01;;;;;;;10.77;3.03;;;;;;;;;;4950736;28;20026;-66
2022/12/20 12:04:33;;;;;;;10.38;3.22;;;;;;;;;;4946867;28;20043;-66
2022/12/20 12:07:03;;;;;;;10.10;3.28;;;;;;;;;;4955589;28;20557;-65
2022/12/20 12:09:37;;;;;;;12.60;3.25;;;;;;;;;;4954052;28;20438;-65
2022/12/20 12:12:14;;;;;;;13.10;3.75;;;;;;;;;;4970466;28;20037;-63
2022/12/20 12:14:40;;;;;;;12.80;3.40;;;;;;;;;;4950928;28;20076;-65
2022/12/20 12:17:17;;;;;;;11.32;3.30;;;;;;;;;;4957068;28;20034;-66
2022/12/20 12:19:46;;;;;;;12.60;3.83;;;;;;;;;;4949643;28;20035;-66
2022/12/20 12:22:16;;;;;;;14.13;3.90;;;;;;;;;;4956931;28;20061;-66
2022/12/20 12:24:45;;;;;;;15.75;3.85;;;;;;;;;;4952056;28;20880;-66
2022/12/20 12:27:26;;;;;;;12.00;4.00;;;;;;;;;;4967246;28;20441;-65
2022/12/20 12:29:53;;;;;;;11.35;3.90;;;;;;;;;;4955020;28;20471;-65
2022/12/20 12:32:25;;;;;;;10.07;3.70;;;;;;;;;;4956700;28;20140;-65
2022/12/20 12:34:58;;;;;;;11.07;3.60;;;;;;;;;;4952771;28;20389;-66
2022/12/20 12:37:24;;;;;;;12.85;4.55;;;;;;;;;;4951479;28;20066;-66
2022/12/20 12:40:12;;;;;;;11.68;3.50;;;;;;;;;;4951516;28;20038;-66
2022/12/20 12:42:38;;;;;;;11.70;4.07;;;;;;;;;;4952240;28;20540;-66
2022/12/20 12:45:13;;;;;;;12.23;3.80;;;;;;;;;;4953454;28;20026;-65
2022/12/20 12:47:45;;;;;;;11.52;3.50;;;;;;;;;;4950229;28;20030;-65
2022/12/20 12:50:37;;;;;;;11.35;3.58;;;;;;;;;;4973904;28;20516;-66
2022/12/20 12:53:11;;;;;;;12.93;3.40;;;;;;;;;;4953432;28;20479;-66
2022/12/20 12:55:40;;;;;;;11.68;3.53;;;;;;;;;;4951020;28;20037;-66
2022/12/20 12:58:24;;;;;;;12.07;3.65;;;;;;;;;;4953836;28;20269;-65
2022/12/20 13:00:50;;;;;;;13.00;3.40;;;;;;;;;;4963044;28;20380;-65
2022/12/20 13:03:34;;;;;;;11.65;3.83;;;;;;;;;;4954483;28;20114;-67
2022/12/20 13:06:20;;;;;;;14.13;5.18;;;;;;;;;;4961987;28;20073;-67
2022/12/20 13:08:46;;;;;;;;;;;;;;;;;;4915755;28;20093;-65
2022/12/20 13:11:27;;;;;;;11.80;5.05;;;;;;;;;;4956246;28;19914;-65
2022/12/20 13:14:12;;;;;;;12.57;4.70;;;;;;;;;;4956792;28;20177;-66
2022/12/20 13:16:40;;;;;;;13.48;4.25;;;;;;;;;;4954465;28;20767;-66
2022/12/20 13:19:33;;;;;;;11.85;3.90;;;;;;;;;;4960307;28;20030;-68
2022/12/20 13:22:05;;;;;;;11.35;4.10;;;;;;;;;;4954801;28;20053;-67
2022/12/20 13:24:53;;;;;;;13.73;4.40;;;;;;;;;;4951033;28;20354;-67
2022/12/20 13:27:32;;;;;;;11.40;3.80;;;;;;;;;;4956026;28;20784;-67
2022/12/20 13:29:58;;;;;;;8.60;2.63;;;;;;;;;;4973335;28;20041;-66
2022/12/20 13:32:44;;;;;;;16.05;3.95;;;;;;;;;;4955283;28;21295;-67
2022/12/20 13:35:28;;;;;;;10.18;3.30;;;;;;;;;;4957358;28;20122;-67
2022/12/20 13:37:56;;;;;;;9.18;2.80;;;;;;;;;;4953585;28;20053;-67
2022/12/20 13:40:31;;;;;;;12.35;3.08;;;;;;;;;;4955581;28;20189;-66
2022/12/20 13:42:58;;;;;;;12.55;3.50;;;;;;;;;;4956316;28;20113;-66
2022/12/20 13:45:25;;;;;;;13.52;3.60;;;;;;;;;;4956406;28;20045;-66
2022/12/20 13:47:57;;;;;;;10.85;3.05;;;;;;;;;;4950337;28;20600;-66
2022/12/20 13:50:26;;;;;;;12.32;2.83;;;;;;;;;;4957572;28;20111;-66
2022/12/20 13:52:53;;;;;;;9.10;2.47;;;;;;;;;;4954452;28;20030;-65
2022/12/20 13:55:25;;;;;;;10.48;2.95;;;;;;;;;;4969849;28;20325;-65
2022/12/20 13:57:52;;;;;;;10.60;3.33;;;;;;;;;;4953426;28;20393;-65
2022/12/20 14:00:22;;;;;;;11.88;2.88;;;;;;;;;;4952107;28;20046;-69
2022/12/20 14:02:48;;;;;;;8.38;2.70;;;;;;;;;;4964322;28;20026;-66
2022/12/20 14:05:17;;;;;;;8.93;2.60;;;;;;;;;;4971699;28;20445;-66
2022/12/20 14:07:43;;;;;;;8.80;2.60;;;;;;;;;;4952970;28;20022;-66
2022/12/20 14:10:17;;;;;;;10.20;2.85;;;;;;;;;;4955458;28;20026;-66
2022/12/20 14:12:45;;;;;;;7.90;2.50;;;;;;;;;;4951980;28;20030;-66
2022/12/20 14:15:25;;;;;;;12.55;2.72;;;;;;;;;;4959389;28;20105;-66
2022/12/20 14:17:52;;;;;;;10.45;2.45;;;;;;;;;;4957880;28;20022;-67
2022/12/20 14:20:22;;;;;;;12.35;2.75;;;;;;;;;;4954391;28;20141;-67
2022/12/20 14:22:48;;;;;;;10.52;2.55;;;;;;;;;;4953535;28;20026;-68
2022/12/20 14:25:16;;;;;;;8.48;2.60;;;;;;;;;;4955058;28;20439;-66
2022/12/20 14:27:42;;;;;;;8.77;2.17;;;;;;;;;;4949918;28;20034;-66
2022/12/20 14:30:27;;;;;;;10.63;2.53;;;;;;;;;;4955636;28;20396;-66
2022/12/20 14:32:55;;;;;;;8.82;2.08;;;;;;;;;;4953749;28;20034;-66
2022/12/20 14:35:21;;;;;;;11.60;2.75;;;;;;;;;;4950969;28;20037;-65
2022/12/20 14:38:14;;;;;;;9.65;2.40;;;;;;;;;;4950423;28;20038;-65
2022/12/20 14:40:42;;;;;;;10.05;2.25;;;;;;;;;;4949393;28;20069;-67
2022/12/20 14:43:33;;;;;;;10.07;2.88;;;;;;;;;;4955007;28;20493;-65
2022/12/20 14:46:26;;;;;;;9.60;2.50;;;;;;;;;;4970420;28;20061;-65
2022/12/20 14:49:11;;;;;;;12.95;2.95;;;;;;;;;;4951719;28;20602;-65
2022/12/20 14:51:38;;;;;;;10.55;2.95;;;;;;;;;;4951894;28;20119;-67
2022/12/20 14:54:04;;;;;;;9.23;3.10;;;;;;;;;;4967311;28;20366;-67
2022/12/20 14:56:32;;;;;;;11.60;3.63;;;;;;;;;;4950914;28;20587;-67
2022/12/20 14:59:06;;;;;;;14.65;3.47;;;;;;;;;;4952619;28;20033;-66
2022/12/20 15:01:32;;;;;;;13.10;3.10;;;;;;;;;;4951653;28;20097;-66
2022/12/20 15:04:00;;;;;;;9.60;3.33;;;;;;;;;;4968736;28;20571;-65